Highland, MI (48356)

2:59 PM EDT on March 25, 2017 (GMT -0400)
Axford Acres | | Change Station

Elev 1038 ft 42.67 °N, 83.59 °W | Updated 6 minutes ago

Overcast
Overcast
42.8 °F
Feels Like 43 °F
N
0.0
Wind Variable Wind from ENE

Today
High -- | Low -- °F
--% Chance of Precip.
Yesterday
High -- | Low -- °F
Precip. -- in
Pressure 30.23 in
Visibility 7.0 miles
Clouds Overcast 600 ft
Windchill 43 °F
Dew Point 41 °F
Humidity 94%
Rainfall 0.79 in
Snow Depth Not available.
7:28 AM 7:52 PM
Waning Crescent, 7% visible
METAR KPTK 251853Z 08011KT 7SM OVC006 06/04 A3021 RMK AO2 RAE33 SLP236 P0001 T00560039
Pressure 30.23 in
Visibility 7.0 miles
Clouds Overcast 600 ft
Windchill 43 °F
Dew Point 41 °F
Humidity 94%
Rainfall 0.79 in
Snow Depth Not available.
7:28 AM 7:52 PM
Waning Crescent, 7% visible
METAR KPTK 251853Z 08011KT 7SM OVC006 06/04 A3021 RMK AO2 RAE33 SLP236 P0001 T00560039

Get Severe Weather Alerts

Thanks for signing up!

Be on the lookout for a verification email in your inbox.

You'll start receiving the daily forecast at 8 AM.

×

10-Day Weather Forecast

Almanac

Astronomy

Mar. 25, 2017 Rise Set
Actual Time
Civil Twilight
Nautical Twilight
Astronomical Twilight
Moon
Length of Visible Light
Length of Day
Tomorrow will be .
, % of the Moon is Illuminated

Today's Extremes

State Highs State Lows

Community

WunderPhotos

Upload Photos

1,962,540 photos uploaded!

WunderBlog® & News

Nearby

Air Quality

  Air Quality AQ Index Pollutant
Not available.

Snow Depth

Station Depth Elevation

Earthquake Activity

City Distance Mag. Time & Date
Minimum magnitude displayed is 2.5.

Earthquake Activity

City Distance Mag. Time & Date
Minimum magnitude displayed is 2.5.

Coastal Water Temperatures

Place Temperature

Stations

Nearby Weather Stations

Station Location Temp. Windchill Dew Point Humidity Wind Precip. Elev Updated Type
                   

Watches & Warnings

There are currently no watches in effect.